LSZH Airport Information

Runway Information
Runway 10 Length 8202 ft width 197 ft
Elevation 1391 ft Threshold 0 ft Heading 96
Runway 28 Length 8202 ft Width 197 ft
Elevation 1416 ft Threshold 0 ft Heading 276
Runway 14 Length 10827 ft width 197 ft
Elevation 1402 ft Threshold 490 ft Heading 137
Runway 32 Length 10827 ft Width 197 ft
Elevation 1402 ft Threshold 0 ft Heading 317
Runway 16 Length 12139 ft width 197 ft
Elevation 1390 ft Threshold 0 ft Heading 155
Runway 34 Length 12139 ft Width 197 ft
Elevation 1388 ft Threshold 1541 ft Heading 335
Airport Frequencies
Type APP Name APP Frequency 118 MHZ
Type ATIS Name ATIS Frequency 125.725 MHZ
Type CLD Name CLNC DEL Frequency 121.8 MHZ
Type DEP Name DEP Frequency 125.95 MHZ
Type GND Name GND Frequency 121.9 MHZ
Type RMP Name APRON Frequency 121.75 MHZ
Type TCA Name TERMINAL Frequency 127.75 MHZ
Type TWR Name TWR Frequency 118.1 MHZ
Airport Navaids
Type VOR-DME Name Kloten Frequency 114850 KHZ
Type VOR-DME Name Zurich East Frequency 110050 KHZ
Airport Weather Information & NOTAM
ADDS - METARS form results

(2132 UTC 17 December 2017)
 
METAR text: LSZH 172120Z 00000KT 9999 FEW020 BKN050 M03/M03 Q1027 NOSIG
Conditions at: LSZH (ZURICH-KLOTEN (A, CH) observed 2120 UTC 17 December 2017
Temperature: -3.0°C (27°F)
Dewpoint: -3.0°C (27°F) [RH = 100%]
Pressure (altimeter): 30.32 inches Hg (1027.0 mb)
Winds: calm
Visibility: 6 or more miles (10+ km)
Ceiling: 5000 feet AGL
Clouds: few clouds at 2000 feet AGL
broken clouds at 5000 feet AGL
Weather: no significant weather observed at this time

METAR text: LSZH 172050Z 11001KT 9999 FEW020 BKN050 M03/M03 Q1027 NOSIG
Conditions at: LSZH (ZURICH-KLOTEN (A, CH) observed 2050 UTC 17 December 2017
Temperature: -3.0°C (27°F)
Dewpoint: -3.0°C (27°F) [RH = 100%]
Pressure (altimeter): 30.32 inches Hg (1027.0 mb)
Winds: from the ESE (110 degrees) at 1 MPH (1 knots; 0.5 m/s)
Visibility: 6 or more miles (10+ km)
Ceiling: 5000 feet AGL
Clouds: few clouds at 2000 feet AGL
broken clouds at 5000 feet AGL
Weather: no significant weather observed at this time